createdAt,value
2023-01-30T00:03:04.607Z,-3.30
2023-01-30T00:08:11.765Z,-3.30
2023-01-30T00:13:19.415Z,-3.50
2023-01-30T00:18:26.131Z,-3.40
2023-01-30T00:23:34.859Z,-3.40
2023-01-30T00:28:41.915Z,-3.40
2023-01-30T00:33:48.777Z,-3.40
2023-01-30T00:38:56.998Z,-3.00
2023-01-30T00:44:21.442Z,-2.80
2023-01-30T00:49:28.684Z,-2.80
2023-01-30T00:54:35.442Z,-2.80
2023-01-30T00:59:42.264Z,-2.90
2023-01-30T01:04:49.004Z,-2.80
2023-01-30T01:09:55.783Z,-2.60
2023-01-30T01:15:02.426Z,-2.60
2023-01-30T01:20:12.847Z,-2.60
2023-01-30T01:25:20.274Z,-2.60
2023-01-30T01:30:27.278Z,-2.90
2023-01-30T01:35:34.130Z,-2.80
2023-01-30T01:40:45.451Z,-2.80
2023-01-30T01:45:56.908Z,-2.80
2023-01-30T01:51:22.748Z,-2.80
2023-01-30T01:56:31.761Z,-2.90
2023-01-30T02:01:39.179Z,-2.80
2023-01-30T02:06:45.971Z,-2.70
2023-01-30T02:11:57.184Z,-2.80
2023-01-30T02:17:04.482Z,-2.90
2023-01-30T02:22:56.388Z,-3.10
2023-01-30T02:28:38.533Z,-3.00
2023-01-30T02:34:10.662Z,-2.80
2023-01-30T02:39:43.034Z,-2.70
2023-01-30T02:45:21.116Z,-2.70
2023-01-30T02:50:38.304Z,-2.70
2023-01-30T02:55:45.262Z,-2.90
2023-01-30T03:01:21.887Z,-2.80
2023-01-30T03:06:47.769Z,-2.80
2023-01-30T03:12:10.828Z,-2.80
2023-01-30T03:17:20.559Z,-2.90
2023-01-30T03:22:27.258Z,-2.80
2023-01-30T03:27:37.159Z,-2.90
2023-01-30T03:32:43.857Z,-2.80
2023-01-30T03:37:50.562Z,-2.90
2023-01-30T03:42:57.239Z,-2.70
2023-01-30T03:48:03.931Z,-2.80
2023-01-30T03:53:10.682Z,-2.80
2023-01-30T03:58:17.382Z,-2.60
2023-01-30T04:03:24.701Z,-2.70
2023-01-30T04:08:31.453Z,-2.60
2023-01-30T04:13:38.227Z,-2.50
2023-01-30T04:18:44.897Z,-2.60
2023-01-30T04:23:51.551Z,-2.60
2023-01-30T04:28:58.224Z,-2.60
2023-01-30T04:34:04.943Z,-2.50
2023-01-30T04:39:11.619Z,-2.80
2023-01-30T04:44:18.317Z,-2.90
2023-01-30T04:49:24.959Z,-2.90
2023-01-30T04:54:31.652Z,-2.90
2023-01-30T04:59:38.306Z,-2.90
2023-01-30T05:04:45.005Z,-2.80
2023-01-30T05:09:51.650Z,-2.80
2023-01-30T05:14:58.330Z,-2.70
2023-01-30T05:20:07.067Z,-2.70
2023-01-30T05:25:13.762Z,-2.60
2023-01-30T05:30:20.750Z,-2.60
2023-01-30T05:35:27.529Z,-2.50
2023-01-30T05:40:34.276Z,-2.60
2023-01-30T05:45:41.236Z,-2.60
2023-01-30T05:50:48.198Z,-2.60
2023-01-30T05:55:59.645Z,-2.40
2023-01-30T06:01:12.817Z,-2.40
2023-01-30T06:06:19.508Z,-2.50
2023-01-30T06:11:26.527Z,-2.50
2023-01-30T06:16:33.281Z,-2.40
2023-01-30T06:21:39.916Z,-2.30
2023-01-30T06:26:46.648Z,-2.40
2023-01-30T06:31:55.583Z,-2.40
2023-01-30T06:37:02.266Z,-2.40
2023-01-30T06:42:08.946Z,-2.30
2023-01-30T06:47:15.643Z,-2.40
2023-01-30T06:52:22.336Z,-2.30
2023-01-30T06:57:28.986Z,-2.10
2023-01-30T07:02:35.868Z,-2.20
2023-01-30T07:07:42.586Z,-2.00
2023-01-30T07:12:50.169Z,-1.90
2023-01-30T07:17:56.825Z,-1.90
2023-01-30T07:23:03.822Z,-1.90
2023-01-30T07:28:11.926Z,-1.90
2023-01-30T07:33:18.527Z,-1.70
2023-01-30T07:38:25.873Z,-1.70
2023-01-30T07:43:32.539Z,-1.60
2023-01-30T07:48:39.218Z,-1.50
2023-01-30T07:53:45.940Z,-1.70
2023-01-30T07:58:53.232Z,-1.70
2023-01-30T08:04:00.106Z,-1.60
2023-01-30T08:09:07.555Z,-1.60
2023-01-30T08:14:14.251Z,-1.40
2023-01-30T08:19:20.964Z,-1.30
2023-01-30T08:24:27.670Z,-1.20
2023-01-30T08:29:34.377Z,-1.10
2023-01-30T08:34:41.175Z,-0.90
2023-01-30T08:39:47.827Z,-0.60
2023-01-30T08:44:55.403Z,-0.60
2023-01-30T08:50:02.165Z,-0.50
2023-01-30T08:55:09.826Z,-0.40
2023-01-30T09:00:17.956Z,-0.20
2023-01-30T09:05:25.471Z,0.00
2023-01-30T09:10:32.146Z,0.00
2023-01-30T09:15:39.396Z,0.00
2023-01-30T09:20:46.374Z,0.30
2023-01-30T09:25:52.975Z,0.00
2023-01-30T09:31:01.119Z,-0.10
2023-01-30T09:36:08.968Z,0.40
2023-01-30T09:41:54.341Z,0.60
2023-01-30T09:47:36.790Z,0.60
2023-01-30T09:53:05.737Z,0.90
2023-01-30T09:58:22.371Z,1.00
2023-01-30T10:03:38.586Z,1.10
2023-01-30T10:09:33.125Z,1.10
2023-01-30T10:15:05.433Z,1.20
2023-01-30T10:26:16.517Z,0.60
2023-01-30T10:31:27.123Z,0.70
2023-01-30T10:36:57.590Z,0.70
2023-01-30T10:42:13.778Z,0.60
2023-01-30T10:47:47.882Z,0.50
2023-01-30T10:53:01.240Z,0.80
2023-01-30T10:58:34.505Z,0.70
2023-01-30T11:03:48.531Z,0.70
2023-01-30T11:08:56.529Z,1.00
2023-01-30T11:14:12.032Z,1.10
2023-01-30T11:19:28.899Z,1.20
2023-01-30T11:24:46.747Z,1.50
2023-01-30T11:30:04.939Z,1.20
2023-01-30T11:35:18.939Z,1.30
2023-01-30T11:40:30.682Z,1.20
2023-01-30T11:45:41.870Z,1.40
2023-01-30T11:50:51.763Z,1.30
2023-01-30T11:56:24.989Z,1.40
2023-01-30T12:01:35.372Z,1.50
2023-01-30T12:06:44.553Z,1.80
2023-01-30T12:11:51.233Z,1.60
2023-01-30T12:17:27.635Z,1.70
2023-01-30T12:22:44.217Z,1.70
2023-01-30T12:28:22.603Z,1.80
2023-01-30T12:33:33.750Z,1.60
2023-01-30T12:39:22.148Z,1.60
2023-01-30T12:44:42.016Z,1.60
2023-01-30T12:50:04.660Z,1.70
2023-01-30T12:55:48.632Z,1.80
2023-01-30T13:01:25.601Z,1.90
2023-01-30T13:06:39.735Z,1.80
2023-01-30T13:11:54.325Z,1.80
2023-01-30T13:17:29.175Z,1.90
2023-01-30T13:22:43.543Z,2.10
2023-01-30T13:27:57.265Z,2.00
2023-01-30T13:33:17.304Z,1.90
2023-01-30T13:38:27.407Z,2.00
2023-01-30T13:43:44.982Z,2.10
2023-01-30T13:49:11.077Z,2.00
2023-01-30T13:54:44.407Z,1.90
2023-01-30T14:00:19.969Z,1.90
2023-01-30T14:06:03.251Z,2.00
2023-01-30T14:11:33.043Z,2.00
2023-01-30T14:16:55.077Z,1.90
2023-01-30T14:22:20.664Z,2.20
2023-01-30T14:27:30.895Z,2.50
2023-01-30T14:32:57.629Z,2.40
2023-01-30T14:38:20.075Z,2.30
2023-01-30T14:43:48.205Z,2.50
2023-01-30T14:49:21.270Z,2.30
2023-01-30T14:54:41.817Z,2.30
2023-01-30T15:00:15.043Z,2.40
2023-01-30T15:05:11.822Z,2.20
2023-01-30T15:10:26.498Z,2.20
2023-01-30T15:15:48.970Z,1.80
2023-01-30T15:21:06.152Z,2.20
2023-01-30T15:26:44.976Z,1.90
2023-01-30T15:32:04.079Z,2.00
2023-01-30T15:37:15.269Z,1.70
2023-01-30T15:42:22.116Z,1.60
2023-01-30T15:47:57.054Z,1.60
2023-01-30T15:53:04.287Z,1.70
2023-01-30T15:58:20.725Z,1.60
2023-01-30T16:03:31.596Z,1.60
2023-01-30T16:08:39.208Z,1.40
2023-01-30T16:13:45.979Z,1.30
2023-01-30T16:18:57.536Z,1.20
2023-01-30T16:24:27.352Z,1.30
2023-01-30T16:29:38.976Z,1.20
2023-01-30T16:34:46.426Z,1.30
2023-01-30T16:40:19.674Z,1.50
2023-01-30T16:45:57.798Z,1.40
2023-01-30T16:51:20.575Z,1.40
2023-01-30T16:56:27.972Z,1.50
2023-01-30T17:01:41.914Z,1.30
2023-01-30T17:06:56.073Z,1.30
2023-01-30T17:12:01.860Z,1.30
2023-01-30T17:17:10.233Z,1.30
2023-01-30T17:22:21.807Z,1.40
2023-01-30T17:27:31.173Z,1.60
2023-01-30T17:32:38.007Z,1.40
2023-01-30T17:37:46.763Z,2.30
2023-01-30T17:42:53.133Z,2.00
2023-01-30T17:48:00.003Z,2.00
2023-01-30T17:53:07.403Z,2.00
2023-01-30T17:58:19.637Z,2.00
2023-01-30T18:03:26.829Z,1.70
2023-01-30T18:08:33.481Z,1.70
2023-01-30T18:13:43.722Z,1.90
2023-01-30T18:18:51.011Z,1.90
2023-01-30T18:23:58.501Z,1.90
2023-01-30T18:29:05.664Z,1.80
2023-01-30T18:34:14.034Z,1.90
2023-01-30T18:39:20.789Z,1.70
2023-01-30T18:44:27.535Z,1.80
2023-01-30T18:49:34.298Z,1.80
2023-01-30T18:54:41.023Z,1.90
2023-01-30T18:59:48.286Z,1.70
2023-01-30T19:04:55.055Z,1.60
2023-01-30T19:10:02.231Z,1.80
2023-01-30T19:15:11.976Z,1.50
2023-01-30T19:20:21.488Z,1.60
2023-01-30T19:25:28.070Z,1.40
2023-01-30T19:30:34.725Z,1.40
2023-01-30T19:35:43.018Z,1.40
2023-01-30T19:40:49.875Z,1.20
2023-01-30T19:46:02.145Z,1.50
2023-01-30T19:51:27.449Z,1.60
2023-01-30T19:56:35.188Z,1.60
2023-01-30T20:01:42.134Z,1.50
2023-01-30T20:06:49.794Z,1.80
2023-01-30T20:11:56.682Z,1.80
2023-01-30T20:17:04.023Z,1.70
2023-01-30T20:22:11.473Z,1.60
2023-01-30T20:27:18.699Z,1.60
2023-01-30T20:32:25.619Z,1.30
2023-01-30T20:37:32.384Z,1.30
2023-01-30T20:42:39.650Z,1.30
2023-01-30T20:47:46.715Z,1.30
2023-01-30T20:52:53.593Z,1.20
2023-01-30T20:58:00.427Z,1.20
2023-01-30T21:03:07.344Z,1.10
2023-01-30T21:08:14.322Z,1.20
2023-01-30T21:13:22.278Z,1.10
2023-01-30T21:18:32.014Z,1.10
2023-01-30T21:23:39.234Z,1.20
2023-01-30T21:28:46.885Z,1.30
2023-01-30T21:33:54.279Z,1.40
2023-01-30T21:39:18.744Z,1.30
2023-01-30T21:44:32.151Z,1.20
2023-01-30T21:49:40.479Z,1.20
2023-01-30T21:54:47.397Z,1.40
2023-01-30T21:59:54.403Z,1.30
2023-01-30T22:05:01.529Z,1.20
2023-01-30T22:10:12.792Z,1.20
2023-01-30T22:15:21.894Z,1.10
2023-01-30T22:20:28.978Z,1.00
2023-01-30T22:25:36.136Z,1.10
2023-01-30T22:30:43.077Z,1.10
2023-01-30T22:35:52.734Z,1.10
2023-01-30T22:41:09.147Z,1.10
2023-01-30T22:46:18.166Z,1.10
2023-01-30T22:51:40.824Z,1.10
2023-01-30T22:56:51.881Z,1.20
2023-01-30T23:01:58.799Z,1.10
2023-01-30T23:07:05.637Z,1.10
2023-01-30T23:12:30.055Z,1.00
2023-01-30T23:17:54.589Z,1.00
2023-01-30T23:23:03.471Z,0.90
2023-01-30T23:28:11.044Z,0.90
2023-01-30T23:33:18.135Z,0.70
2023-01-30T23:38:25.208Z,0.60
2023-01-30T23:43:32.073Z,0.80
2023-01-30T23:48:39.024Z,0.90
2023-01-30T23:53:46.332Z,0.80
2023-01-30T23:58:53.695Z,0.80
